Time;durP1;ratioP1;P1;durP2;ratioP2;P2;SDS_P1;SDS_P2;PMS_P1;PMS_P2;Temp;Humidity;BMP_temperature;BMP_pressure;BME280_temperature;BME280_humidity;BME280_pressure;Samples;Min_cycle;Max_cycle;Signal;HPM_P1;HPM_P2
2022/09/30 00:01:24;;;;;;;14.30;10.43;;;;;;;4.38;91.96;99872.17;1597988;89;21098;-76
2022/09/30 00:03:53;;;;;;;17.83;10.80;;;;;;;4.35;91.87;99874.83;1597891;89;21153;-72
2022/09/30 00:06:21;;;;;;;19.30;11.30;;;;;;;4.30;91.80;99885.31;1597352;89;21055;-78
2022/09/30 00:08:48;;;;;;;19.57;11.63;;;;;;;4.29;91.94;99887.48;1598024;89;21064;-77
2022/09/30 00:11:25;;;;;;;17.57;11.43;;;;;;;4.29;92.20;99879.70;1597837;89;21079;-77
2022/09/30 00:13:54;;;;;;;23.40;13.00;;;;;;;4.31;92.42;99879.23;1598003;89;21055;-77
2022/09/30 00:16:23;;;;;;;20.67;11.80;;;;;;;4.34;92.36;99883.51;1598950;83;21155;-77
2022/09/30 00:18:51;;;;;;;20.17;11.77;;;;;;;4.32;92.32;99891.30;1727200;82;20998;-78
2022/09/30 00:21:19;;;;;;;16.00;10.80;;;;;;;4.30;92.30;99892.25;1727158;82;20998;-76
2022/09/30 00:23:47;;;;;;;15.43;10.80;;;;;;;4.32;92.42;99890.45;1719221;83;21046;-75
2022/09/30 00:26:18;;;;;;;17.70;11.50;;;;;;;4.32;92.55;99889.16;1694062;83;21008;-77
2022/09/30 00:28:54;;;;;;;17.47;10.47;;;;;;;4.34;92.75;99889.99;1698942;84;21090;-77
2022/09/30 00:31:24;;;;;;;17.83;11.63;;;;;;;4.38;92.95;99891.63;1698717;84;20992;-72
2022/09/30 00:34:13;;;;;;;20.08;11.78;;;;;;;4.40;92.82;99893.75;1699132;84;21010;-78
2022/09/30 00:36:21;;;;;;;18.13;12.30;;;;;;;4.39;92.83;99897.25;1688174;84;21441;-77
2022/09/30 00:38:48;;;;;;;20.33;12.00;;;;;;;4.40;93.08;99899.80;1698793;84;20990;-78
2022/09/30 00:41:15;;;;;;;16.37;11.37;;;;;;;4.41;92.84;99891.59;1698723;84;21195;-73
2022/09/30 00:43:50;;;;;;;16.43;11.37;;;;;;;4.36;92.69;99887.78;1698987;84;21571;-72
2022/09/30 00:46:37;;;;;;;17.80;9.90;;;;;;;4.36;92.80;99888.23;1698413;84;21044;-78
2022/09/30 00:49:16;;;;;;;21.93;10.30;;;;;;;4.34;92.73;99901.67;1736747;81;21016;-76
2022/09/30 00:51:50;;;;;;;19.27;10.10;;;;;;;4.34;93.16;99895.19;1746253;82;21047;-78
2022/09/30 00:54:25;;;;;;;19.50;8.93;;;;;;;4.31;92.99;99907.77;1747269;82;21092;-78
2022/09/30 00:56:57;;;;;;;16.23;8.67;;;;;;;4.30;93.03;99916.90;1747060;82;20976;-78
2022/09/30 00:59:32;;;;;;;14.23;7.80;;;;;;;4.28;92.97;99916.91;1747460;82;20992;-77
2022/09/30 01:02:00;;;;;;;12.60;7.27;;;;;;;4.23;92.82;99915.69;1746645;82;21545;-78
2022/09/30 01:04:31;;;;;;;12.50;7.27;;;;;;;4.19;92.75;99914.05;1747346;82;21131;-77
2022/09/30 01:07:05;;;;;;;8.93;7.33;;;;;;;4.16;92.89;99910.22;1747354;82;21481;-79
2022/09/30 01:09:38;;;;;;;8.67;7.03;;;;;;;4.17;93.07;99911.92;1747264;82;20976;-77
2022/09/30 01:12:16;;;;;;;8.43;7.03;;;;;;;4.15;92.91;99918.87;1747572;82;21047;-78
2022/09/30 01:14:46;;;;;;;9.67;7.60;;;;;;;4.11;92.80;99915.94;1746428;82;21494;-77
2022/09/30 01:17:36;;;;;;;9.35;6.97;;;;;;;4.11;92.98;99918.53;1747764;82;21514;-77
2022/09/30 01:20:20;;;;;;;9.03;6.53;;;;;;;4.10;92.98;99914.23;1747076;82;21936;-78
2022/09/30 01:23:05;;;;;;;9.67;7.57;;;;;;;4.06;92.78;99912.56;1690776;83;21017;-77
2022/09/30 01:25:46;;;;;;;11.97;8.27;;;;;;;4.04;92.99;99909.14;1746249;82;21454;-78
2022/09/30 01:28:30;;;;;;;11.57;8.83;;;;;;;4.03;92.89;99912.63;1747568;82;21051;-78
2022/09/30 01:31:22;;;;;;;12.60;8.87;;;;;;;4.02;93.03;99906.59;1747502;82;21117;-78
2022/09/30 01:34:06;;;;;;;13.03;8.90;;;;;;;4.04;93.13;99913.03;1746635;82;21092;-78
2022/09/30 01:37:00;;;;;;;12.83;8.13;;;;;;;4.01;92.94;99911.79;1734348;82;21011;-77
2022/09/30 01:39:53;;;;;;;12.10;7.77;;;;;;;3.97;92.84;99906.26;1743486;82;20999;-72
2022/09/30 01:42:41;;;;;;;10.57;7.60;;;;;;;3.93;92.73;99911.92;1747443;82;20988;-78
2022/09/30 01:45:31;;;;;;;12.37;8.17;;;;;;;3.89;92.69;99911.57;1746804;82;20976;-78
2022/09/30 01:48:09;;;;;;;12.30;7.62;;;;;;;3.86;92.74;99910.78;1747335;82;22028;-76
2022/09/30 01:50:51;;;;;;;11.87;8.27;;;;;;;3.84;92.75;99915.13;1746458;82;21015;-79
2022/09/30 01:53:28;;;;;;;14.53;7.90;;;;;;;3.82;92.75;99923.36;1747359;81;20957;-78
2022/09/30 01:56:07;;;;;;;13.33;8.63;;;;;;;3.79;92.75;99913.90;1747266;82;20977;-77
2022/09/30 01:58:47;;;;;;;14.60;7.97;;;;;;;3.76;92.77;99912.66;1747323;82;21524;-79
2022/09/30 02:01:23;;;;;;;11.83;7.63;;;;;;;3.75;92.89;99916.99;1746585;82;21147;-78
2022/09/30 02:04:00;;;;;;;11.17;7.20;;;;;;;3.73;93.06;99917.45;1723020;82;21059;-79
2022/09/30 02:06:36;;;;;;;15.70;8.50;;;;;;;3.75;93.24;99916.99;1710503;83;21015;-79
2022/09/30 02:09:13;;;;;;;9.57;7.53;;;;;;;3.76;93.31;99919.14;1747387;81;21095;-77
2022/09/30 02:11:41;;;;;;;12.77;8.33;;;;;;;3.78;93.53;99923.42;1747557;82;20976;-79
2022/09/30 02:14:31;;;;;;;13.43;7.97;;;;;;;3.82;93.76;99918.18;1747328;82;21536;-79
2022/09/30 02:17:19;;;;;;;11.53;7.78;;;;;;;3.84;93.67;99919.02;1747692;82;21337;-79
2022/09/30 02:20:01;;;;;;;12.73;8.00;;;;;;;3.84;93.58;99909.50;1747295;82;21035;-72
2022/09/30 02:22:44;;;;;;;11.70;7.47;;;;;;;3.84;93.69;99906.91;1747410;82;21024;-78
2022/09/30 02:25:19;;;;;;;13.03;8.27;;;;;;;3.88;93.88;99908.58;1747377;81;20984;-78
2022/09/30 02:27:55;;;;;;;11.07;7.97;;;;;;;3.88;93.77;99903.80;1746745;82;21139;-78
2022/09/30 02:30:22;;;;;;;12.40;7.37;;;;;;;3.91;93.90;99911.56;1747135;82;21446;-79
2022/09/30 02:33:03;;;;;;;13.43;7.80;;;;;;;3.88;93.60;99904.69;1747404;82;20988;-78
2022/09/30 02:35:40;;;;;;;11.33;7.58;;;;;;;3.88;93.64;99908.99;1747789;82;20992;-73
2022/09/30 02:38:18;;;;;;;11.87;7.37;;;;;;;3.87;93.49;99910.73;1747010;82;21067;-79
2022/09/30 02:40:51;;;;;;;12.40;6.90;;;;;;;3.84;93.36;99905.61;1747086;82;21130;-73
2022/09/30 02:43:19;;;;;;;9.17;6.37;;;;;;;3.84;93.34;99912.53;1747352;81;21478;-73
2022/09/30 02:45:54;;;;;;;10.83;7.07;;;;;;;3.80;93.11;99916.92;1747486;82;21024;-78
2022/09/30 02:49:03;;;;;;;9.27;6.83;;;;;;;3.75;93.10;99916.99;1747241;82;20960;-79
2022/09/30 02:51:57;;;;;;;10.20;6.80;;;;;;;3.73;92.96;99915.31;1747136;82;21004;-78
2022/09/30 02:54:35;;;;;;;14.47;7.40;;;;;;;3.67;92.92;99922.75;1745980;82;21292;-78
2022/09/30 02:57:23;;;;;;;12.40;6.83;;;;;;;3.62;92.81;99927.14;1728544;81;21028;-78
2022/09/30 02:59:52;;;;;;;11.60;7.00;;;;;;;3.58;92.83;99926.80;1715357;82;20893;-78
2022/09/30 03:02:20;;;;;;;12.63;7.13;;;;;;;3.53;92.80;99926.86;1724841;82;21031;-76
2022/09/30 03:04:50;;;;;;;12.47;7.57;;;;;;;3.51;92.88;99926.02;1746341;82;21498;-79
2022/09/30 03:07:18;;;;;;;10.60;7.63;;;;;;;3.50;92.99;99931.24;1728042;82;21556;-78
2022/09/30 03:09:45;;;;;;;9.80;6.93;;;;;;;3.48;93.01;99929.95;1747448;82;20992;-79
2022/09/30 03:12:40;;;;;;;9.40;6.73;;;;;;;3.46;93.09;99936.03;1747154;81;21011;-78
2022/09/30 03:15:24;;;;;;;10.37;7.10;;;;;;;3.45;93.14;99939.07;1724987;82;21462;-79
2022/09/30 03:18:21;;;;;;;9.53;7.03;;;;;;;3.43;93.22;99939.97;1747281;82;20972;-78
2022/09/30 03:20:54;;;;;;;11.17;7.20;;;;;;;3.42;93.55;99945.60;1717855;82;21441;-78
2022/09/30 03:23:41;;;;;;;10.67;7.47;;;;;;;3.47;93.94;99948.13;1736117;82;21016;-78
2022/09/30 03:26:37;;;;;;;10.50;7.17;;;;;;;3.49;93.98;99951.12;1747322;82;20988;-79
2022/09/30 03:29:25;;;;;;;9.93;6.90;;;;;;;3.50;93.85;99959.73;1747298;82;21016;-77
2022/09/30 03:32:18;;;;;;;11.00;7.60;;;;;;;3.51;93.97;99962.73;1728082;82;20996;-73
2022/09/30 03:35:02;;;;;;;9.57;7.50;;;;;;;3.50;93.88;99960.59;1747643;81;21112;-78
2022/09/30 03:37:38;;;;;;;9.87;7.20;;;;;;;3.47;93.72;99955.45;1745633;82;21484;-78
2022/09/30 03:40:10;;;;;;;10.60;7.50;;;;;;;3.46;93.80;99953.73;1747041;82;21524;-77
2022/09/30 03:42:47;;;;;;;9.97;6.67;;;;;;;3.46;93.74;99949.84;1747250;81;21083;-78
2022/09/30 03:45:23;;;;;;;11.07;6.87;;;;;;;3.45;93.69;99953.32;1746514;82;21470;-78
2022/09/30 03:47:54;;;;;;;8.77;6.63;;;;;;;3.45;93.66;99957.66;1746953;82;21166;-78
2022/09/30 03:50:24;;;;;;;13.90;6.83;;;;;;;3.42;93.59;99953.38;1751694;81;21023;-79
2022/09/30 03:52:52;;;;;;;10.27;7.20;;;;;;;3.43;93.63;99954.22;1754389;81;21489;-79
2022/09/30 03:55:21;;;;;;;11.17;6.93;;;;;;;3.39;93.47;99945.65;1720110;83;21572;-75
2022/09/30 03:57:48;;;;;;;10.67;6.97;;;;;;;3.37;93.39;99942.22;1748876;81;21034;-79
2022/09/30 04:00:17;;;;;;;14.67;7.13;;;;;;;3.35;93.36;99951.73;1716269;83;21293;-79
2022/09/30 04:02:45;;;;;;;11.87;7.33;;;;;;;3.34;93.50;99953.92;1754132;81;21012;-76
2022/09/30 04:05:12;;;;;;;9.93;7.20;;;;;;;3.35;93.58;99946.56;1744850;81;21504;-74
2022/09/30 04:07:39;;;;;;;14.27;7.67;;;;;;;3.34;93.67;99948.30;1742790;81;21496;-73
2022/09/30 04:10:07;;;;;;;13.07;7.70;;;;;;;3.37;93.87;99948.70;1718029;83;20995;-73
2022/09/30 04:12:34;;;;;;;12.43;7.70;;;;;;;3.37;93.78;99949.14;1740668;81;22017;-73
2022/09/30 04:15:01;;;;;;;10.63;7.37;;;;;;;3.35;93.79;99956.51;1754033;81;21055;-79
2022/09/30 04:17:28;;;;;;;13.63;10.10;;;;;;;3.37;93.94;99961.65;1754133;81;21264;-80
2022/09/30 04:19:55;;;;;;;14.00;9.13;;;;;;;3.37;94.05;99956.47;1724101;83;21009;-78
2022/09/30 04:22:22;;;;;;;28.50;10.50;;;;;;;3.38;94.24;99967.27;1733763;82;21026;-78
2022/09/30 04:24:49;;;;;;;15.67;9.07;;;;;;;3.40;94.48;99969.81;1745000;81;21031;-79
2022/09/30 04:27:16;;;;;;;12.93;8.23;;;;;;;3.42;94.59;99969.36;1754385;81;21020;-79
2022/09/30 04:29:44;;;;;;;13.10;8.60;;;;;;;3.45;94.76;99978.38;1721020;83;21030;-79
2022/09/30 04:32:11;;;;;;;10.90;7.77;;;;;;;3.48;94.65;99986.11;1752083;81;21031;-79
2022/09/30 04:34:37;;;;;;;10.73;7.90;;;;;;;3.47;94.35;99988.30;1716396;83;21492;-80
2022/09/30 04:37:04;;;;;;;10.07;7.63;;;;;;;3.44;94.12;99993.52;1754068;81;21970;-79
2022/09/30 04:39:31;;;;;;;10.23;7.10;;;;;;;3.43;94.10;99993.09;1754516;81;21445;-78
2022/09/30 04:41:58;;;;;;;12.63;8.10;;;;;;;3.43;94.16;99993.09;1754502;81;20988;-79
2022/09/30 04:44:25;;;;;;;9.93;7.67;;;;;;;3.42;94.04;99997.86;1719120;83;21577;-79
2022/09/30 04:46:53;;;;;;;11.20;7.70;;;;;;;3.39;94.00;99992.73;1744366;81;21063;-78
2022/09/30 04:49:20;;;;;;;10.83;7.40;;;;;;;3.39;94.10;100006.53;1721682;83;21144;-80
2022/09/30 04:51:47;;;;;;;9.90;6.80;;;;;;;3.38;93.96;100005.23;1754132;81;21054;-80
2022/09/30 04:54:15;;;;;;;10.67;7.13;;;;;;;3.34;93.93;100009.17;1723355;83;21054;-79
2022/09/30 04:56:43;;;;;;;11.43;7.93;;;;;;;3.33;93.94;100013.09;1739567;81;21009;-80
2022/09/30 04:59:10;;;;;;;9.03;7.47;;;;;;;3.35;94.30;100011.32;1722835;83;21449;-80
2022/09/30 05:01:38;;;;;;;12.00;7.73;;;;;;;3.38;94.48;100015.19;1737224;81;21106;-79
2022/09/30 05:04:05;;;;;;;11.97;8.43;;;;;;;3.42;94.57;100014.25;1754170;81;21494;-78
2022/09/30 05:06:32;;;;;;;10.30;7.80;;;;;;;3.44;94.67;100020.73;1754581;81;21488;-80
2022/09/30 05:08:59;;;;;;;13.80;7.80;;;;;;;3.46;94.73;100020.24;1721590;83;21329;-78
2022/09/30 05:11:26;;;;;;;14.00;7.83;;;;;;;3.48;94.83;100022.38;1722511;81;21552;-78
2022/09/30 05:13:54;;;;;;;13.03;8.23;;;;;;;3.49;94.72;100024.96;1740336;81;21942;-76
2022/09/30 05:16:21;;;;;;;13.10;8.63;;;;;;;3.52;94.86;100024.92;1731053;82;21497;-80
2022/09/30 05:18:48;;;;;;;11.90;8.57;;;;;;;3.58;95.15;100031.30;1729016;82;21024;-79
2022/09/30 05:21:19;;;;;;;13.53;8.77;;;;;;;3.62;95.01;100033.40;1751313;81;21011;-83
2022/09/30 05:23:47;;;;;;;13.20;8.60;;;;;;;3.66;95.18;100036.80;1723683;81;21500;-82
2022/09/30 05:26:14;;;;;;;10.93;8.03;;;;;;;3.70;95.09;100045.81;1735497;81;21159;-83
2022/09/30 05:28:42;;;;;;;12.60;7.90;;;;;;;3.71;94.96;100042.77;1717953;82;21071;-86
2022/09/30 05:31:11;;;;;;;12.73;8.07;;;;;;;3.72;94.88;100043.21;1715536;81;21081;-81
2022/09/30 05:33:40;;;;;;;13.35;7.75;;;;;;;3.73;94.87;100052.69;1738018;81;21015;-76
2022/09/30 05:36:10;;;;;;;10.60;7.80;;;;;;;3.76;94.96;100053.94;1734079;81;21003;-77
2022/09/30 05:38:37;;;;;;;12.23;7.78;;;;;;;3.78;94.91;100052.19;1724890;81;21600;-77
2022/09/30 05:41:13;;;;;;;11.23;8.37;;;;;;;3.79;94.92;100062.52;1735522;81;21070;-79
2022/09/30 05:43:46;;;;;;;12.73;7.67;;;;;;;3.83;94.99;100063.80;1724307;81;21082;-78
2022/09/30 05:46:16;;;;;;;13.63;9.13;;;;;;;3.89;95.37;100071.03;1734851;81;21031;-78
2022/09/30 05:48:43;;;;;;;11.30;8.70;;;;;;;4.03;96.16;100074.27;1718069;82;21078;-78
2022/09/30 05:51:11;;;;;;;15.67;9.77;;;;;;;4.18;96.49;100072.30;1708081;82;21046;-79
2022/09/30 05:53:40;;;;;;;14.33;8.73;;;;;;;4.25;96.24;100073.48;1721669;81;21018;-75
2022/09/30 05:56:09;;;;;;;12.47;8.67;;;;;;;4.30;96.27;100073.41;1715261;82;21024;-78
2022/09/30 05:58:39;;;;;;;14.10;10.10;;;;;;;4.38;96.27;100083.64;1715468;82;20990;-78
2022/09/30 06:01:10;;;;;;;22.30;13.43;;;;;;;4.42;96.31;100080.98;1710722;82;21133;-79
2022/09/30 06:03:38;;;;;;;32.83;20.87;;;;;;;4.56;96.72;100084.63;1740332;82;21998;-78
2022/09/30 06:06:06;;;;;;;60.47;38.87;;;;;;;4.67;96.68;100085.75;1719880;82;21024;-79
2022/09/30 06:08:34;;;;;;;73.27;43.83;;;;;;;4.75;96.56;100075.23;1717470;82;21032;-75
2022/09/30 06:11:03;;;;;;;69.03;44.13;;;;;;;4.84;96.51;100081.55;1728334;82;21060;-76
2022/09/30 06:13:30;;;;;;;63.87;39.40;;;;;;;4.90;96.23;100087.91;1731172;82;21040;-78
2022/09/30 06:16:01;;;;;;;66.40;43.37;;;;;;;4.96;96.15;100089.53;1730052;82;21151;-73
2022/09/30 06:18:29;;;;;;;64.43;43.17;;;;;;;5.04;96.40;100091.09;1723255;82;21533;-74
2022/09/30 06:20:58;;;;;;;56.43;38.80;;;;;;;5.16;96.58;100087.42;1737977;82;22300;-74
2022/09/30 06:23:25;;;;;;;51.27;36.10;;;;;;;5.28;96.75;100091.06;1736125;82;21485;-74
2022/09/30 06:25:54;;;;;;;27.00;21.37;;;;;;;5.37;96.62;100096.52;1733085;82;21048;-74
2022/09/30 06:28:23;;;;;;;39.33;29.37;;;;;;;5.46;96.65;100098.95;1724380;82;21147;-75
2022/09/30 06:30:51;;;;;;;42.50;31.03;;;;;;;5.54;96.49;100096.16;1735778;82;21088;-83
2022/09/30 06:33:33;;;;;;;36.37;28.80;;;;;;;5.57;96.04;100104.77;1747792;82;21032;-76
2022/09/30 06:36:06;;;;;;;25.13;18.77;;;;;;;5.65;96.23;100105.88;1719219;82;21028;-75
2022/09/30 06:38:32;;;;;;;19.37;17.03;;;;;;;5.72;96.26;100110.52;1717787;82;21009;-76
2022/09/30 06:41:00;;;;;;;18.03;16.13;;;;;;;5.80;96.55;100113.81;1718315;82;22042;-73
2022/09/30 06:43:27;;;;;;;24.20;21.37;;;;;;;5.88;96.49;100113.20;1717644;82;21198;-76
2022/09/30 06:45:54;;;;;;;26.63;19.70;;;;;;;5.94;96.57;100112.24;1718732;82;21084;-73
2022/09/30 06:48:22;;;;;;;22.67;17.07;;;;;;;5.99;96.56;100111.25;1718573;82;21009;-74
2022/09/30 06:50:52;;;;;;;22.00;18.00;;;;;;;6.09;96.72;100112.32;1720305;81;21075;-76
2022/09/30 06:53:18;;;;;;;21.77;18.03;;;;;;;6.14;96.55;100118.28;1722716;81;21111;-76
2022/09/30 06:55:45;;;;;;;19.20;14.43;;;;;;;6.19;96.50;100123.79;1722929;81;21534;-76
2022/09/30 06:58:15;;;;;;;15.00;11.20;;;;;;;6.25;96.37;100126.23;1722872;81;21016;-76
2022/09/30 07:00:43;;;;;;;13.10;9.87;;;;;;;6.32;96.41;100124.36;1722952;81;21025;-76
2022/09/30 07:03:18;;;;;;;13.83;10.17;;;;;;;6.38;96.39;100119.45;1745097;81;22036;-76
2022/09/30 07:05:45;;;;;;;12.33;9.00;;;;;;;6.42;96.06;100121.08;1736186;81;21220;-76
2022/09/30 07:08:12;;;;;;;11.20;8.33;;;;;;;6.47;96.29;100123.13;1748174;81;21128;-76
2022/09/30 07:10:39;;;;;;;13.67;9.23;;;;;;;6.55;96.26;100130.75;1753040;81;21009;-76
2022/09/30 07:13:07;;;;;;;12.57;8.90;;;;;;;6.64;96.55;100131.36;1752873;81;21248;-76
2022/09/30 07:15:34;;;;;;;10.83;8.60;;;;;;;6.72;96.82;100123.36;1753113;81;21493;-76
2022/09/30 07:18:01;;;;;;;10.83;8.40;;;;;;;6.82;96.84;100129.20;1752811;81;21130;-76
2022/09/30 07:20:28;;;;;;;10.67;8.43;;;;;;;6.90;96.89;100131.13;1752841;81;21061;-76
2022/09/30 07:22:56;;;;;;;10.73;8.20;;;;;;;6.98;96.83;100136.15;1752748;81;20983;-76
2022/09/30 07:25:24;;;;;;;12.33;8.50;;;;;;;7.08;96.90;100145.45;1752931;81;21456;-76
2022/09/30 07:27:51;;;;;;;11.23;8.07;;;;;;;7.15;96.61;100150.45;1752867;81;21006;-76
2022/09/30 07:30:19;;;;;;;11.73;8.50;;;;;;;7.21;96.74;100155.11;1756716;81;21125;-75
2022/09/30 07:32:46;;;;;;;15.17;10.73;;;;;;;7.33;96.90;100153.45;1752725;81;20905;-75
2022/09/30 07:35:14;;;;;;;10.73;8.53;;;;;;;7.42;96.88;100153.64;1752743;81;20933;-76
2022/09/30 07:37:41;;;;;;;11.97;9.03;;;;;;;7.48;96.65;100150.85;1752825;81;20997;-75
2022/09/30 07:40:10;;;;;;;12.13;9.23;;;;;;;7.57;96.73;100157.13;1753169;81;21025;-76
2022/09/30 07:42:44;;;;;;;12.43;8.77;;;;;;;7.69;97.01;100158.53;1752846;81;21077;-75
2022/09/30 07:45:15;;;;;;;16.10;10.57;;;;;;;7.82;97.11;100161.19;1753134;81;22210;-73
2022/09/30 07:47:40;;;;;;;13.63;10.30;;;;;;;7.92;96.94;100167.82;1752403;81;21406;-75
2022/09/30 07:50:09;;;;;;;13.77;10.50;;;;;;;8.03;96.93;100171.42;1752591;81;21022;-76
2022/09/30 07:52:36;;;;;;;13.60;10.43;;;;;;;8.10;96.85;100170.34;1749329;82;21474;-76
2022/09/30 07:55:05;;;;;;;14.90;10.43;;;;;;;8.20;96.92;100172.20;1749694;82;21181;-72
2022/09/30 07:57:32;;;;;;;11.37;10.13;;;;;;;8.33;97.14;100175.30;1757010;81;20949;-75
2022/09/30 07:59:59;;;;;;;14.20;10.67;;;;;;;8.44;96.73;100178.00;1757340;81;20993;-76
2022/09/30 08:02:26;;;;;;;14.73;10.80;;;;;;;8.52;96.45;100182.14;1757167;81;21016;-75
2022/09/30 08:04:53;;;;;;;16.93;10.27;;;;;;;8.63;96.72;100177.42;1751994;81;21526;-73
2022/09/30 08:07:20;;;;;;;17.37;10.43;;;;;;;8.74;96.57;100174.00;1741670;81;21146;-76
2022/09/30 08:09:47;;;;;;;12.20;10.47;;;;;;;8.83;96.29;100174.14;1757301;81;21032;-76
2022/09/30 08:12:16;;;;;;;11.77;10.00;;;;;;;8.91;96.10;100177.36;1757060;81;21053;-76
2022/09/30 08:14:43;;;;;;;13.83;10.90;;;;;;;9.02;96.36;100170.47;1757037;81;21064;-73
2022/09/30 08:17:11;;;;;;;17.93;11.40;;;;;;;9.15;96.57;100176.52;1757147;81;21036;-72
2022/09/30 08:19:42;;;;;;;14.63;11.47;;;;;;;9.30;96.61;100180.36;1757461;81;21106;-76
2022/09/30 08:22:09;;;;;;;14.20;11.00;;;;;;;9.42;96.27;100189.98;1756593;81;21040;-75
2022/09/30 08:24:36;;;;;;;15.47;11.80;;;;;;;9.53;96.47;100191.33;1757204;81;21491;-75
2022/09/30 08:27:04;;;;;;;19.57;13.53;;;;;;;9.68;96.38;100191.67;1757289;81;21033;-74
2022/09/30 08:29:31;;;;;;;18.45;13.48;;;;;;;9.83;96.40;100189.78;1757193;81;21060;-76
2022/09/30 08:31:58;;;;;;;20.37;12.18;;;;;;;9.96;96.23;100188.42;1757278;81;22000;-73
2022/09/30 08:34:25;;;;;;;15.45;12.35;;;;;;;10.12;96.15;100193.09;1757162;81;21442;-73
2022/09/30 08:36:52;;;;;;;15.53;12.37;;;;;;;10.28;96.16;100192.89;1757455;81;21053;-76
2022/09/30 08:39:19;;;;;;;17.62;12.28;;;;;;;10.35;95.73;100187.82;1757383;81;21303;-75
2022/09/30 08:42:18;;;;;;;17.25;12.90;;;;;;;10.43;95.54;100188.83;1757575;81;21056;-75
2022/09/30 08:44:48;;;;;;;16.73;12.75;;;;;;;10.49;95.25;100189.89;1757198;81;21149;-75
2022/09/30 08:47:51;;;;;;;16.37;12.82;;;;;;;10.53;94.95;100192.80;1757788;81;20910;-76
2022/09/30 08:50:42;;;;;;;19.75;13.53;;;;;;;10.53;94.60;100187.56;1756530;81;21008;-75
2022/09/30 08:53:14;;;;;;;16.82;13.40;;;;;;;10.52;94.45;100198.09;1757615;81;21029;-73
2022/09/30 08:55:44;;;;;;;17.35;13.62;;;;;;;10.52;94.42;100196.32;1757509;81;21308;-73
2022/09/30 08:58:23;;;;;;;18.67;14.18;;;;;;;10.58;94.68;100201.77;1757713;81;26412;-73
2022/09/30 09:00:52;;;;;;;20.43;14.00;;;;;;;10.67;94.69;100194.87;1756955;81;20985;-75
2022/09/30 09:03:23;;;;;;;15.78;13.35;;;;;;;10.74;94.33;100192.38;1757684;81;21530;-75
2022/09/30 09:06:13;;;;;;;20.65;14.53;;;;;;;10.82;94.64;100196.84;1740778;81;21030;-75
2022/09/30 09:09:03;;;;;;;18.32;14.13;;;;;;;10.91;94.41;100210.88;1737630;81;21527;-76
2022/09/30 09:11:47;;;;;;;18.27;14.43;;;;;;;10.96;94.16;100212.47;1757743;81;21522;-75
2022/09/30 09:14:34;;;;;;;18.73;14.75;;;;;;;11.06;94.54;100217.27;1757775;81;20985;-75
2022/09/30 09:17:37;;;;;;;18.17;13.83;;;;;;;11.19;94.12;100220.67;1757395;81;21021;-75
2022/09/30 09:20:17;;;;;;;19.45;14.28;;;;;;;11.30;94.33;100219.30;1756834;81;21016;-73
2022/09/30 09:22:47;;;;;;;18.52;14.40;;;;;;;11.51;94.76;100216.67;1757612;81;21056;-73
2022/09/30 09:25:19;;;;;;;18.82;14.15;;;;;;;11.75;94.73;100215.59;1757926;81;21107;-74
2022/09/30 09:27:56;;;;;;;17.27;14.25;;;;;;;11.98;94.43;100211.95;1757482;81;21046;-73
2022/09/30 09:30:28;;;;;;;17.27;15.05;;;;;;;12.16;93.95;100209.39;1757690;81;21526;-75
2022/09/30 09:33:21;;;;;;;22.35;15.65;;;;;;;12.32;93.46;100210.84;1756771;81;21506;-75
2022/09/30 09:36:00;;;;;;;20.37;15.32;;;;;;;12.39;93.43;100208.33;1757797;81;21541;-76
2022/09/30 09:39:02;;;;;;;19.62;15.50;;;;;;;12.49;92.88;100209.56;1756455;81;21090;-73
2022/09/30 09:41:59;;;;;;;18.73;14.70;;;;;;;12.58;92.65;100209.58;1756987;81;21490;-76
2022/09/30 09:45:01;;;;;;;19.42;15.75;;;;;;;12.70;92.43;100212.48;1756890;81;21004;-76
2022/09/30 09:47:28;;;;;;;22.82;16.70;;;;;;;12.83;92.46;100210.55;1757896;81;21017;-76
2022/09/30 09:50:03;;;;;;;20.88;16.02;;;;;;;13.03;92.54;100211.75;1757504;81;21516;-72
2022/09/30 09:53:12;;;;;;;21.45;17.35;;;;;;;13.15;92.17;100214.22;1757262;81;22106;-77
2022/09/30 09:55:39;;;;;;;23.32;17.75;;;;;;;13.32;91.94;100213.39;1756275;81;21008;-76
2022/09/30 09:58:14;;;;;;;20.27;15.78;;;;;;;13.49;91.33;100210.72;1757154;81;20997;-75
2022/09/30 10:03:25;;;;;;;103.85;34.23;;;;;;;13.81;91.09;100209.52;1757224;81;21028;-76
2022/09/30 10:06:06;;;;;;;42.33;20.88;;;;;;;13.94;90.75;100210.56;1739685;81;20993;-75
2022/09/30 10:08:40;;;;;;;16.60;13.03;;;;;;;14.06;90.37;100215.62;1756697;81;21016;-76
2022/09/30 10:11:24;;;;;;;63.08;23.73;;;;;;;14.19;89.78;100214.03;1757028;81;21020;-75
2022/09/30 10:13:57;;;;;;;21.45;15.45;;;;;;;14.33;89.75;100213.70;1757300;81;20993;-76
2022/09/30 10:16:36;;;;;;;75.90;29.42;;;;;;;14.47;89.39;100213.81;1757481;81;21036;-74
2022/09/30 10:19:27;;;;;;;20.52;15.23;;;;;;;14.55;88.95;100216.03;1757113;81;21054;-76
2022/09/30 10:22:16;;;;;;;146.10;39.25;;;;;;;14.64;88.22;100222.97;1757369;81;21240;-74
2022/09/30 10:24:43;;;;;;;20.12;13.78;;;;;;;14.76;88.26;100218.77;1757268;81;21009;-76
2022/09/30 10:27:28;;;;;;;17.12;12.28;;;;;;;14.85;87.80;100222.66;1757442;81;21556;-76
2022/09/30 10:29:55;;;;;;;18.67;12.75;;;;;;;14.97;87.69;100219.34;1748108;81;21337;-74
2022/09/30 10:32:24;;;;;;;16.05;12.30;;;;;;;15.09;87.47;100217.28;1757102;81;22091;-76
2022/09/30 10:34:59;;;;;;;18.57;12.98;;;;;;;15.22;86.89;100220.54;1757429;81;20986;-75
2022/09/30 10:37:26;;;;;;;107.15;37.90;;;;;;;15.25;86.07;100217.72;1752894;81;21044;-74
2022/09/30 10:40:00;;;;;;;96.37;32.10;;;;;;;15.38;86.45;100218.22;1757073;81;20993;-76
2022/09/30 10:42:30;;;;;;;44.55;19.35;;;;;;;15.51;86.24;100220.10;1757229;81;22180;-76
2022/09/30 10:45:21;;;;;;;110.08;35.68;;;;;;;15.61;86.13;100223.90;1757777;81;21294;-76
2022/09/30 10:47:52;;;;;;;16.30;11.68;;;;;;;15.75;85.92;100222.61;1727005;83;20985;-76
2022/09/30 10:50:23;;;;;;;20.90;13.35;;;;;;;15.87;84.97;100210.91;1757308;81;21493;-76
2022/09/30 10:53:01;;;;;;;16.30;11.88;;;;;;;15.98;85.12;100213.73;1754909;81;21481;-75
2022/09/30 10:55:44;;;;;;;19.92;13.22;;;;;;;16.05;84.39;100213.25;1751679;81;20968;-75
2022/09/30 10:58:50;;;;;;;15.90;12.28;;;;;;;16.22;84.10;100208.22;1754369;81;21011;-72
2022/09/30 11:01:32;;;;;;;12.68;10.45;;;;;;;16.31;83.75;100210.75;1747524;81;21011;-76
2022/09/30 11:04:10;;;;;;;17.62;12.13;;;;;;;16.43;83.27;100203.37;1753384;81;21042;-80
2022/09/30 11:06:41;;;;;;;11.75;10.55;;;;;;;16.74;83.01;100209.30;1745269;81;21000;-81
2022/09/30 11:09:31;;;;;;;14.63;10.68;;;;;;;16.88;82.64;100207.95;1724218;83;21037;-79
2022/09/30 11:12:25;;;;;;;18.27;11.50;;;;;;;16.95;82.34;100214.52;1692965;83;21135;-78
2022/09/30 11:15:25;;;;;;;11.63;9.65;;;;;;;17.07;82.09;100210.22;1703133;81;21026;-79
2022/09/30 11:18:16;;;;;;;12.78;10.03;;;;;;;17.33;82.17;100212.42;1737678;81;20983;-80
2022/09/30 11:20:49;;;;;;;10.05;8.55;;;;;;;17.58;81.61;100214.23;1718641;81;21041;-77
2022/09/30 11:23:36;;;;;;;10.78;8.80;;;;;;;18.08;80.67;100218.30;1708483;82;21558;-78
2022/09/30 11:26:17;;;;;;;10.48;7.20;;;;;;;18.46;79.93;100218.68;1708335;82;21774;-78
2022/09/30 11:29:23;;;;;;;11.35;8.78;;;;;;;18.56;77.87;100218.35;1716060;82;21084;-78
2022/09/30 11:32:23;;;;;;;10.68;8.10;;;;;;;18.76;77.69;100212.96;1725255;80;21487;-75
2022/09/30 11:35:23;;;;;;;9.78;7.15;;;;;;;19.06;77.04;100219.58;1699135;82;21018;-81
2022/09/30 11:38:11;;;;;;;9.10;7.75;;;;;;;19.22;76.00;100216.13;1716275;82;21045;-76
2022/09/30 11:40:46;;;;;;;8.90;7.72;;;;;;;19.46;75.57;100221.88;1714731;82;21996;-80
2022/09/30 11:44:09;;;;;;;7.45;6.67;;;;;;;19.71;75.20;100215.05;1715967;82;21025;-77
2022/09/30 11:47:15;;;;;;;12.98;9.10;;;;;;;19.91;74.63;100215.29;1714835;82;20997;-78
2022/09/30 11:49:56;;;;;;;10.93;8.78;;;;;;;19.93;73.09;100217.35;1716072;82;21080;-78
2022/09/30 11:52:51;;;;;;;15.35;9.53;;;;;;;20.13;73.07;100218.42;1717340;82;21585;-78
2022/09/30 11:55:36;;;;;;;13.48;8.98;;;;;;;20.24;71.99;100220.58;1719027;82;21170;-81
2022/09/30 11:58:10;;;;;;;10.68;8.58;;;;;;;20.34;71.98;100218.04;1718995;82;21517;-76
2022/09/30 12:00:43;;;;;;;11.83;9.38;;;;;;;20.45;71.14;100222.47;1718899;82;21553;-87
2022/09/30 12:03:30;;;;;;;12.85;9.13;;;;;;;20.54;70.61;100216.94;1719010;82;20985;-81